Time;durP1;ratioP1;P1;durP2;ratioP2;P2;SDS_P1;SDS_P2;PMS_P1;PMS_P2;Temp;Humidity;BMP_temperature;BMP_pressure;BME280_temperature;BME280_humidity;BME280_pressure;Samples;Min_cycle;Max_cycle;Signal;HPM_P1;HPM_P2
2022/01/30 00:00:24;;;;;;;36.38;6.43;;;7.20;99.90;;;;;;5044502;28;20037;-68
2022/01/30 00:02:51;;;;;;;28.38;5.18;;;7.20;99.90;;;;;;5037298;28;20029;-69
2022/01/30 00:05:18;;;;;;;20.20;5.18;;;7.20;99.90;;;;;;5056155;28;20041;-69
2022/01/30 00:07:43;;;;;;;34.60;5.70;;;7.20;99.90;;;;;;5056185;28;20032;-69
2022/01/30 00:10:12;;;;;;;24.98;4.50;;;7.20;99.90;;;;;;5055823;28;20043;-68
2022/01/30 00:12:54;;;;;;;23.15;4.60;;;7.20;99.90;;;;;;5039633;28;20033;-68
2022/01/30 00:15:35;;;;;;;27.08;4.38;;;7.20;99.90;;;;;;5036197;28;20033;-69
2022/01/30 00:18:12;;;;;;;25.88;4.68;;;7.10;99.90;;;;;;5035960;28;20111;-69
2022/01/30 00:20:40;;;;;;;30.65;4.75;;;7.10;99.90;;;;;;5036048;28;20069;-68
2022/01/30 00:23:12;;;;;;;25.85;3.85;;;7.10;99.90;;;;;;5034594;28;20401;-69
2022/01/30 00:25:50;;;;;;;23.90;4.43;;;7.10;99.90;;;;;;5053508;28;20033;-69
2022/01/30 00:28:19;;;;;;;30.40;5.03;;;7.10;99.90;;;;;;5034781;28;20030;-69
2022/01/30 00:30:45;;;;;;;38.30;7.47;;;7.00;99.90;;;;;;5034606;28;20088;-68
2022/01/30 00:33:10;;;;;;;23.92;4.18;;;6.90;99.90;;;;;;5035726;28;20443;-69
2022/01/30 00:35:36;;;;;;;29.60;4.30;;;6.90;99.90;;;;;;5052830;28;20025;-69
2022/01/30 00:38:04;;;;;;;33.53;5.57;;;7.00;99.90;;;;;;5053685;28;20392;-69
2022/01/30 00:40:29;;;;;;;28.02;5.15;;;7.00;99.90;;;;;;5054045;28;20443;-69
2022/01/30 00:42:55;;;;;;;32.33;4.30;;;7.00;99.90;;;;;;5055534;28;20029;-69
2022/01/30 00:45:21;;;;;;;29.67;4.25;;;6.90;99.90;;;;;;5052103;28;20372;-70
2022/01/30 00:47:47;;;;;;;36.28;5.63;;;6.90;99.90;;;;;;5053085;28;20044;-70
2022/01/30 00:50:13;;;;;;;38.78;5.22;;;6.80;99.90;;;;;;5054093;28;20456;-69
2022/01/30 00:52:39;;;;;;;28.63;4.65;;;6.80;99.90;;;;;;5054069;28;20021;-70
2022/01/30 00:55:05;;;;;;;24.52;4.72;;;6.80;99.90;;;;;;5053676;28;20083;-69
2022/01/30 00:57:31;;;;;;;30.40;4.80;;;6.70;99.90;;;;;;5054046;28;20120;-69
2022/01/30 00:59:57;;;;;;;24.38;4.45;;;6.70;99.90;;;;;;5051637;28;20112;-70
2022/01/30 01:02:22;;;;;;;25.73;4.13;;;6.70;99.90;;;;;;5053680;28;20029;-68
2022/01/30 01:04:48;;;;;;;26.88;4.85;;;6.70;99.90;;;;;;5055168;28;20056;-69
2022/01/30 01:07:19;;;;;;;26.42;3.75;;;6.70;99.90;;;;;;5055034;28;20024;-68
2022/01/30 01:09:57;;;;;;;37.17;5.35;;;6.70;99.90;;;;;;5054598;28;20065;-69
2022/01/30 01:12:53;;;;;;;38.10;5.35;;;6.70;99.90;;;;;;5050266;28;20060;-68
2022/01/30 01:23:35;;;;;;;23.17;4.28;;;6.60;99.90;;;;;;5052984;28;20151;-69
2022/01/30 01:26:01;;;;;;;30.33;3.95;;;6.60;99.90;;;;;;5053143;28;20473;-69
2022/01/30 01:28:27;;;;;;;39.55;5.72;;;6.50;99.90;;;;;;5054737;28;20029;-68
2022/01/30 01:30:53;;;;;;;28.55;4.50;;;6.50;99.90;;;;;;5053303;28;20063;-69
2022/01/30 01:33:20;;;;;;;38.47;4.90;;;6.50;99.90;;;;;;5054488;28;20067;-69
2022/01/30 01:35:46;;;;;;;36.10;6.18;;;6.40;99.90;;;;;;5054505;28;20048;-69
2022/01/30 01:38:14;;;;;;;58.40;6.40;;;6.40;99.90;;;;;;5054081;28;20037;-69
2022/01/30 01:40:49;;;;;;;35.40;4.05;;;6.40;99.90;;;;;;5053137;28;20025;-69
2022/01/30 01:43:15;;;;;;;29.33;4.85;;;6.40;99.90;;;;;;5052978;28;20036;-69
2022/01/30 01:45:41;;;;;;;36.28;5.00;;;6.40;99.90;;;;;;5054468;28;20025;-69
2022/01/30 01:48:13;;;;;;;26.70;4.18;;;6.40;99.90;;;;;;5051693;28;20036;-69
2022/01/30 01:50:43;;;;;;;39.67;5.35;;;6.40;99.90;;;;;;5041139;28;20021;-69
2022/01/30 01:53:13;;;;;;;35.40;4.53;;;6.40;99.90;;;;;;5032479;28;20029;-69
2022/01/30 01:55:42;;;;;;;39.60;4.75;;;6.40;99.90;;;;;;5033098;28;20021;-69
2022/01/30 01:58:15;;;;;;;42.15;5.72;;;6.40;99.90;;;;;;5032844;28;20452;-69
2022/01/30 02:01:02;;;;;;;28.17;5.72;;;6.30;99.90;;;;;;5044051;28;20891;-69
2022/01/30 02:03:28;;;;;;;28.85;5.10;;;6.30;99.90;;;;;;5049471;28;20500;-69
2022/01/30 02:05:59;;;;;;;44.50;7.05;;;6.30;99.90;;;;;;5049537;28;20033;-69
2022/01/30 02:08:38;;;;;;;29.90;5.57;;;6.20;99.90;;;;;;5033604;28;20485;-69
2022/01/30 02:26:47;;;;;;;35.97;4.53;;;6.10;99.90;;;;;;5052229;28;20025;-68
2022/01/30 02:29:13;;;;;;;40.10;5.57;;;6.10;99.90;;;;;;5052201;28;20432;-69
2022/01/30 02:31:41;;;;;;;33.17;5.25;;;6.10;99.90;;;;;;5052036;28;20028;-70
2022/01/30 02:34:08;;;;;;;30.73;4.35;;;6.10;99.90;;;;;;5051949;28;20116;-69
2022/01/30 02:36:45;;;;;;;30.13;5.53;;;6.10;99.90;;;;;;5052043;28;20446;-69
2022/01/30 02:39:11;;;;;;;32.47;5.07;;;6.10;99.90;;;;;;5052061;28;20057;-69
2022/01/30 02:41:39;;;;;;;34.17;5.47;;;6.00;99.90;;;;;;5051888;28;20083;-71
2022/01/30 02:44:13;;;;;;;29.98;5.63;;;6.10;99.90;;;;;;5051920;28;20025;-69
2022/01/30 02:46:45;;;;;;;32.00;4.93;;;6.00;99.90;;;;;;5051914;28;20115;-69
2022/01/30 02:50:11;;;;;;;;;;;6.00;99.90;;;;;;5053523;28;20424;-69
2022/01/30 02:52:00;;;;;;;33.70;5.05;;;6.00;99.90;;;;;;5041096;28;19916;-69
2022/01/30 02:54:28;;;;;;;40.95;5.95;;;6.00;99.90;;;;;;5051748;28;20100;-69
2022/01/30 02:56:54;;;;;;;29.30;5.60;;;6.00;99.90;;;;;;5051778;28;20017;-70
2022/01/30 02:59:21;;;;;;;23.38;4.95;;;6.00;99.90;;;;;;5051459;28;20577;-69
2022/01/30 03:01:48;;;;;;;24.95;3.90;;;6.00;99.90;;;;;;5051494;28;20095;-69
2022/01/30 03:04:15;;;;;;;36.15;6.00;;;5.90;99.90;;;;;;5052542;28;20473;-69
2022/01/30 03:06:41;;;;;;;32.47;4.45;;;5.90;99.90;;;;;;5051732;28;20033;-69
2022/01/30 03:09:17;;;;;;;22.95;4.60;;;5.80;99.90;;;;;;5051609;28;20392;-70
2022/01/30 03:11:44;;;;;;;35.38;4.85;;;5.90;99.90;;;;;;5051563;28;20025;-70
2022/01/30 03:14:09;;;;;;;37.35;5.72;;;5.80;99.90;;;;;;5051507;28;20094;-69
2022/01/30 03:16:35;;;;;;;34.88;5.47;;;5.80;99.90;;;;;;5051579;28;20074;-69
2022/01/30 03:19:01;;;;;;;29.27;5.32;;;5.80;99.90;;;;;;5052311;28;20033;-70
2022/01/30 03:21:27;;;;;;;25.20;4.97;;;5.80;99.90;;;;;;5051465;28;20033;-69
2022/01/30 03:23:53;;;;;;;28.40;4.68;;;5.80;99.90;;;;;;5051158;28;20016;-68
2022/01/30 03:26:19;;;;;;;33.80;4.93;;;5.80;99.90;;;;;;5051465;28;20400;-69
2022/01/30 03:29:05;;;;;;;32.97;4.95;;;5.80;99.90;;;;;;5051352;28;20033;-68
2022/01/30 03:31:36;;;;;;;26.40;4.22;;;5.70;99.90;;;;;;5051296;28;20104;-69
2022/01/30 03:34:03;;;;;;;34.40;4.63;;;5.70;99.90;;;;;;5050899;28;20059;-69
2022/01/30 03:36:38;;;;;;;26.30;4.47;;;5.70;99.90;;;;;;5051427;28;20021;-68
2022/01/30 03:39:05;;;;;;;32.85;5.28;;;5.70;99.90;;;;;;5051198;28;20113;-69
2022/01/30 03:41:31;;;;;;;31.52;4.05;;;5.70;99.90;;;;;;5051259;28;20087;-69
2022/01/30 03:43:57;;;;;;;26.20;4.68;;;5.70;99.90;;;;;;5051186;28;20022;-70
2022/01/30 03:46:25;;;;;;;31.38;5.20;;;5.70;99.90;;;;;;5040808;28;20025;-69
2022/01/30 03:48:51;;;;;;;30.80;5.57;;;5.70;99.90;;;;;;5030922;28;20021;-69
2022/01/30 03:51:29;;;;;;;29.27;4.30;;;5.70;99.90;;;;;;5031377;28;20030;-69
2022/01/30 03:54:00;;;;;;;31.90;4.07;;;5.70;99.90;;;;;;5031127;28;20033;-69
2022/01/30 03:56:25;;;;;;;28.48;4.28;;;5.70;99.90;;;;;;5031330;28;20508;-69
2022/01/30 03:58:52;;;;;;;28.13;4.47;;;5.60;99.90;;;;;;5031224;28;20032;-69
2022/01/30 04:01:18;;;;;;;34.50;4.65;;;5.60;99.90;;;;;;5031103;28;20037;-69
2022/01/30 04:03:44;;;;;;;26.42;4.15;;;5.60;99.90;;;;;;5031196;28;20025;-69
2022/01/30 04:06:12;;;;;;;29.02;4.13;;;5.50;99.90;;;;;;5032438;28;20478;-69
2022/01/30 04:08:39;;;;;;;25.70;3.80;;;5.40;99.90;;;;;;5031296;28;20080;-69
2022/01/30 04:11:24;;;;;;;29.58;5.30;;;5.40;99.90;;;;;;5032304;28;20111;-69
2022/01/30 04:14:02;;;;;;;28.70;4.32;;;5.30;99.90;;;;;;5036211;28;20100;-69
2022/01/30 04:16:54;;;;;;;28.55;5.18;;;5.30;99.90;;;;;;5032756;28;20041;-69
2022/01/30 04:19:38;;;;;;;27.42;3.80;;;5.40;99.90;;;;;;5051141;28;20025;-69
2022/01/30 04:22:22;;;;;;;38.83;5.95;;;5.30;99.90;;;;;;5034609;28;20030;-71
2022/01/30 04:25:26;;;;;;;40.72;5.88;;;5.30;99.90;;;;;;5006788;28;20041;-69
2022/01/30 04:28:15;;;;;;;30.23;5.53;;;5.30;99.90;;;;;;4973582;28;20034;-69
2022/01/30 04:31:07;;;;;;;21.67;3.70;;;5.20;99.90;;;;;;5021998;28;20037;-68
2022/01/30 04:33:49;;;;;;;;;;;5.30;99.90;;;;;;5034908;28;20025;-68
2022/01/30 04:36:55;;;;;;;34.97;5.53;;;5.20;99.90;;;;;;5034502;28;19913;-68
2022/01/30 04:57:59;;;;;;;34.53;4.53;;;5.40;99.90;;;;;;5055776;28;20393;-68
2022/01/30 05:01:08;;;;;;;34.03;6.07;;;5.40;99.90;;;;;;5051939;28;20576;-69
2022/01/30 05:04:20;;;;;;;27.92;4.28;;;5.40;99.90;;;;;;5050644;28;20036;-68
2022/01/30 05:09:38;;;;;;;42.40;6.80;;;5.40;99.90;;;;;;5035171;28;20143;-69
2022/01/30 05:12:18;;;;;;;33.38;4.30;;;5.40;99.90;;;;;;5033893;28;20048;-69
2022/01/30 05:15:04;;;;;;;28.42;4.75;;;5.40;99.90;;;;;;5033538;28;20051;-69
2022/01/30 05:17:59;;;;;;;27.58;6.63;;;5.50;99.90;;;;;;4998368;28;20047;-69
2022/01/30 05:20:45;;;;;;;35.75;5.45;;;5.60;99.90;;;;;;5043055;28;20041;-70
2022/01/30 05:23:23;;;;;;;40.08;4.90;;;5.60;99.90;;;;;;5041560;28;20029;-68
2022/01/30 05:26:07;;;;;;;32.85;5.00;;;5.60;99.90;;;;;;5036234;28;20112;-69
2022/01/30 05:28:35;;;;;;;34.13;5.50;;;5.60;99.90;;;;;;5053317;28;20025;-70
2022/01/30 05:31:17;;;;;;;37.70;5.38;;;5.50;99.90;;;;;;5052869;28;20091;-69
2022/01/30 05:34:02;;;;;;;37.38;4.60;;;5.50;99.90;;;;;;5049975;28;20094;-69
2022/01/30 05:36:52;;;;;;;39.75;5.22;;;5.40;99.90;;;;;;5053189;28;20025;-69
2022/01/30 05:39:53;;;;;;;34.80;5.75;;;5.40;99.90;;;;;;5012518;28;20041;-69
2022/01/30 05:42:45;;;;;;;37.85;4.40;;;5.50;99.90;;;;;;5051483;28;20041;-69
2022/01/30 05:45:43;;;;;;;28.67;4.60;;;5.40;99.90;;;;;;5054407;28;20123;-69
2022/01/30 05:48:30;;;;;;;32.38;6.20;;;5.50;99.90;;;;;;5053691;28;20029;-69
2022/01/30 05:51:24;;;;;;;31.42;6.07;;;5.40;99.90;;;;;;5052827;28;20029;-69
2022/01/30 05:53:53;;;;;;;30.75;6.13;;;5.40;99.90;;;;;;5052624;28;20044;-69
2022/01/30 05:56:21;;;;;;;38.15;5.82;;;5.30;99.90;;;;;;5052755;28;20021;-69
2022/01/30 05:58:48;;;;;;;37.30;5.68;;;5.30;99.90;;;;;;5052539;28;20035;-69
2022/01/30 06:01:18;;;;;;;24.52;5.30;;;5.30;99.90;;;;;;5053053;28;20037;-69
2022/01/30 06:03:43;;;;;;;32.85;6.00;;;5.40;99.90;;;;;;5052580;28;20104;-69
2022/01/30 06:06:09;;;;;;;26.60;4.15;;;5.40;99.90;;;;;;5052690;28;20385;-70
2022/01/30 06:08:41;;;;;;;32.55;4.88;;;5.40;99.90;;;;;;5052612;28;20028;-69
2022/01/30 06:11:08;;;;;;;27.75;5.15;;;5.40;99.90;;;;;;5053815;28;20033;-69
2022/01/30 06:13:34;;;;;;;27.60;4.75;;;5.40;99.90;;;;;;5052208;28;20530;-69
2022/01/30 06:16:01;;;;;;;33.03;4.65;;;5.40;99.90;;;;;;5052484;28;20021;-70
2022/01/30 06:18:27;;;;;;;23.33;5.18;;;5.50;99.90;;;;;;5052269;28;20017;-69
2022/01/30 06:21:11;;;;;;;34.85;6.05;;;5.40;99.90;;;;;;5053651;28;20075;-69
2022/01/30 06:23:52;;;;;;;27.20;5.28;;;5.50;99.90;;;;;;5053597;28;20036;-69
2022/01/30 06:26:50;;;;;;;30.58;5.20;;;5.50;99.90;;;;;;5033692;28;20072;-69
2022/01/30 06:29:42;;;;;;;35.45;4.47;;;5.50;99.90;;;;;;5037527;28;20037;-70
2022/01/30 06:32:26;;;;;;;27.42;4.72;;;5.40;99.90;;;;;;5053006;28;20094;-70
2022/01/30 06:35:10;;;;;;;37.15;5.50;;;5.40;99.90;;;;;;5053148;28;20059;-69
2022/01/30 06:37:54;;;;;;;25.48;4.95;;;5.60;99.90;;;;;;5053519;28;20044;-69
2022/01/30 06:40:49;;;;;;;26.90;5.15;;;5.80;99.90;;;;;;5053119;28;20111;-69
2022/01/30 06:43:47;;;;;;;28.63;5.57;;;6.00;99.90;;;;;;5029989;28;20111;-69
2022/01/30 06:46:39;;;;;;;28.05;5.45;;;6.10;99.90;;;;;;5049255;28;20037;-71
2022/01/30 06:49:23;;;;;;;28.40;4.75;;;6.00;99.90;;;;;;5053325;28;20094;-70
2022/01/30 06:52:09;;;;;;;30.00;5.15;;;5.60;99.90;;;;;;5053309;28;20098;-70
2022/01/30 06:55:08;;;;;;;33.85;5.25;;;5.40;99.90;;;;;;5030139;28;20045;-69
2022/01/30 06:58:00;;;;;;;34.53;5.22;;;5.40;99.90;;;;;;5036705;28;20037;-69
2022/01/30 07:00:54;;;;;;;31.25;4.60;;;5.30;99.90;;;;;;5043662;28;20045;-69
2022/01/30 07:03:46;;;;;;;38.28;5.43;;;5.30;99.90;;;;;;5052625;28;20045;-70
2022/01/30 07:06:26;;;;;;;41.30;6.00;;;5.20;99.90;;;;;;5051639;28;20392;-69
2022/01/30 07:08:52;;;;;;;31.63;5.57;;;5.30;99.90;;;;;;5052886;28;20062;-69
2022/01/30 07:11:17;;;;;;;37.05;5.97;;;5.40;99.90;;;;;;5052549;28;20021;-69
2022/01/30 07:13:43;;;;;;;31.88;5.10;;;5.30;99.90;;;;;;5052925;28;20069;-69
2022/01/30 07:16:09;;;;;;;41.15;6.60;;;5.20;99.90;;;;;;5052844;28;20129;-69
2022/01/30 07:18:35;;;;;;;36.03;4.85;;;5.20;99.90;;;;;;5052631;28;20388;-69
2022/01/30 07:21:04;;;;;;;36.80;5.32;;;5.30;99.90;;;;;;5051641;28;20040;-70
2022/01/30 07:23:30;;;;;;;37.38;5.65;;;5.40;99.90;;;;;;5052582;28;20033;-69
2022/01/30 07:25:56;;;;;;;39.03;6.40;;;5.40;99.90;;;;;;5052398;28;20048;-69
2022/01/30 07:28:21;;;;;;;26.42;5.60;;;5.40;99.90;;;;;;5052558;28;20033;-69
2022/01/30 07:30:47;;;;;;;32.10;5.93;;;5.30;99.90;;;;;;5052917;28;20036;-69
2022/01/30 07:33:13;;;;;;;29.20;6.10;;;5.30;99.90;;;;;;5052619;28;20033;-70
2022/01/30 07:35:40;;;;;;;36.58;4.80;;;5.30;99.90;;;;;;5052691;28;20028;-69
2022/01/30 07:38:06;;;;;;;27.27;5.20;;;5.40;99.90;;;;;;5052689;28;20060;-69
2022/01/30 07:40:33;;;;;;;28.77;6.75;;;5.40;99.90;;;;;;5051988;28;20452;-69
2022/01/30 07:42:59;;;;;;;36.90;5.55;;;5.40;99.90;;;;;;5050948;28;20056;-69
2022/01/30 07:45:26;;;;;;;27.85;5.18;;;5.50;99.90;;;;;;5049801;28;20083;-69
2022/01/30 07:47:52;;;;;;;44.10;6.65;;;5.50;99.90;;;;;;5054782;28;20025;-69
2022/01/30 07:50:18;;;;;;;32.47;5.55;;;5.50;99.90;;;;;;5056040;28;20033;-69
2022/01/30 07:52:44;;;;;;;33.53;5.90;;;5.60;99.90;;;;;;5056036;28;20028;-69
2022/01/30 07:55:10;;;;;;;34.85;5.45;;;5.40;99.90;;;;;;5055824;28;20025;-69
2022/01/30 07:57:36;;;;;;;35.08;6.32;;;5.40;99.90;;;;;;5056313;28;20032;-69
2022/01/30 08:00:04;;;;;;;29.20;5.15;;;5.40;99.90;;;;;;5055941;28;20045;-69
2022/01/30 08:02:38;;;;;;;34.25;6.03;;;5.40;99.90;;;;;;5055672;28;20055;-69
2022/01/30 08:05:04;;;;;;;35.28;4.43;;;5.40;99.90;;;;;;5056045;28;20388;-69
2022/01/30 08:07:31;;;;;;;22.63;5.07;;;5.40;99.90;;;;;;5054684;28;20029;-69
2022/01/30 08:09:57;;;;;;;26.63;4.70;;;5.40;99.90;;;;;;5055297;28;20040;-69
2022/01/30 08:12:23;;;;;;;43.25;7.50;;;5.40;99.90;;;;;;5054887;28;20036;-69
2022/01/30 08:14:49;;;;;;;29.50;6.10;;;5.30;99.90;;;;;;5055201;28;20029;-69
2022/01/30 08:17:21;;;;;;;40.63;6.22;;;5.40;99.90;;;;;;5053679;28;20024;-69
2022/01/30 08:19:47;;;;;;;;;;;5.40;99.90;;;;;;5055223;28;20513;-69
2022/01/30 08:22:13;;;;;;;36.08;6.43;;;5.50;99.90;;;;;;5053889;28;19913;-69
2022/01/30 08:24:39;;;;;;;42.95;6.40;;;5.60;99.90;;;;;;5054559;28;20092;-69
2022/01/30 08:27:05;;;;;;;34.33;6.03;;;5.50;99.90;;;;;;5054986;28;20032;-69
2022/01/30 08:29:31;;;;;;;38.42;7.25;;;5.60;99.90;;;;;;5053662;28;20297;-69
2022/01/30 08:31:58;;;;;;;41.08;5.20;;;5.70;99.90;;;;;;5054932;28;20053;-69
2022/01/30 08:34:24;;;;;;;38.78;6.80;;;5.80;99.90;;;;;;5054582;28;20037;-69
2022/01/30 08:36:50;;;;;;;49.75;6.53;;;5.90;99.90;;;;;;5054460;28;20469;-69
2022/01/30 08:39:16;;;;;;;35.60;5.13;;;6.00;99.90;;;;;;5054659;28;20060;-69
2022/01/30 08:41:42;;;;;;;29.25;6.72;;;6.10;99.90;;;;;;5054851;28;20080;-69
2022/01/30 08:44:08;;;;;;;35.75;4.82;;;6.10;99.90;;;;;;5064712;28;20021;-69
2022/01/30 08:46:33;;;;;;;46.90;7.35;;;6.00;99.90;;;;;;5057921;28;20502;-69
2022/01/30 08:48:59;;;;;;;56.45;7.18;;;5.80;99.90;;;;;;5048156;28;20105;-69
2022/01/30 08:51:25;;;;;;;43.65;5.85;;;5.90;99.90;;;;;;5054232;28;20500;-69
2022/01/30 08:53:50;;;;;;;36.08;7.25;;;5.80;99.90;;;;;;5059708;28;20059;-69
2022/01/30 08:56:18;;;;;;;30.92;8.25;;;5.80;99.90;;;;;;5043299;28;20078;-69
2022/01/30 08:58:44;;;;;;;32.58;7.40;;;5.80;99.90;;;;;;5036349;28;20044;-69
2022/01/30 09:01:12;;;;;;;27.77;7.07;;;5.90;99.90;;;;;;5048463;28;20025;-69
2022/01/30 09:03:38;;;;;;;35.00;7.03;;;6.00;99.90;;;;;;5053169;28;20025;-69
2022/01/30 09:06:03;;;;;;;49.05;6.03;;;6.20;99.90;;;;;;5041070;28;20041;-69
2022/01/30 09:08:30;;;;;;;30.23;6.43;;;6.40;99.90;;;;;;5047527;28;20029;-69
2022/01/30 09:10:57;;;;;;;43.88;5.80;;;6.50;99.90;;;;;;5052087;28;20021;-69
2022/01/30 09:13:24;;;;;;;33.33;7.15;;;6.50;99.90;;;;;;5054026;28;20045;-71
2022/01/30 09:15:56;;;;;;;44.20;6.75;;;6.70;99.90;;;;;;5054199;28;20373;-69
2022/01/30 09:18:21;;;;;;;35.30;6.53;;;6.80;99.90;;;;;;5053869;28;20037;-69
2022/01/30 09:20:47;;;;;;;40.45;6.05;;;7.00;99.90;;;;;;5059972;28;20094;-69
2022/01/30 09:23:13;;;;;;;36.53;5.65;;;7.00;99.90;;;;;;5063897;28;20025;-69
2022/01/30 09:25:39;;;;;;;29.92;7.10;;;7.10;99.90;;;;;;5054165;28;20545;-69
2022/01/30 09:28:05;;;;;;;27.65;5.55;;;7.10;99.90;;;;;;5049461;28;20040;-69
2022/01/30 09:30:32;;;;;;;40.88;5.55;;;7.30;99.90;;;;;;5051216;28;20017;-69
2022/01/30 09:32:58;;;;;;;27.63;5.28;;;7.40;99.90;;;;;;5053166;28;20536;-69
2022/01/30 09:35:24;;;;;;;33.78;5.68;;;7.50;99.90;;;;;;5053349;28;20500;-69
2022/01/30 09:37:50;;;;;;;42.78;5.95;;;7.60;99.90;;;;;;5051422;28;20013;-69
2022/01/30 09:40:17;;;;;;;37.08;5.50;;;8.00;99.90;;;;;;5052492;28;20029;-69
2022/01/30 09:42:45;;;;;;;27.70;5.10;;;7.90;99.90;;;;;;5051849;28;20027;-69
2022/01/30 09:45:14;;;;;;;37.90;6.45;;;7.90;99.90;;;;;;5051236;28;20074;-69
2022/01/30 09:47:41;;;;;;;32.17;5.53;;;8.00;99.90;;;;;;5053402;28;20053;-69
2022/01/30 09:50:08;;;;;;;35.28;5.38;;;8.20;99.90;;;;;;5054058;28;20146;-69
2022/01/30 09:52:36;;;;;;;29.70;5.95;;;8.20;99.90;;;;;;5053772;28;20043;-69
2022/01/30 09:55:04;;;;;;;25.85;5.10;;;8.30;99.90;;;;;;5051669;28;20511;-69
2022/01/30 09:57:29;;;;;;;31.40;5.28;;;8.30;99.90;;;;;;5054074;28;20025;-69
2022/01/30 09:59:56;;;;;;;33.13;5.38;;;8.40;99.90;;;;;;5053967;28;20024;-69
2022/01/30 10:02:26;;;;;;;30.20;5.00;;;8.70;99.90;;;;;;5048699;28;20354;-69
2022/01/30 10:04:52;;;;;;;22.48;4.00;;;9.10;99.90;;;;;;5053051;28;20033;-69
2022/01/30 10:07:21;;;;;;;24.33;4.90;;;9.00;99.90;;;;;;5053613;28;20024;-68
2022/01/30 10:09:49;;;;;;;37.65;7.95;;;9.10;99.90;;;;;;5051048;28;20043;-68
2022/01/30 10:12:22;;;;;;;34.83;5.65;;;9.70;99.90;;;;;;5047852;28;20025;-69
2022/01/30 10:15:07;;;;;;;27.98;5.05;;;9.40;99.90;;;;;;5049182;28;20111;-68
2022/01/30 10:17:36;;;;;;;34.90;5.63;;;9.40;99.90;;;;;;5053259;28;20036;-69
2022/01/30 10:20:16;;;;;;;21.80;4.45;;;9.60;99.90;;;;;;5054620;28;20024;-68
2022/01/30 10:23:01;;;;;;;23.90;4.90;;;9.30;99.90;;;;;;5054354;28;20032;-69
2022/01/30 10:25:28;;;;;;;25.83;4.43;;;8.80;99.90;;;;;;5049991;28;20112;-68
2022/01/30 10:28:20;;;;;;;33.65;4.63;;;8.70;99.90;;;;;;5052884;28;20044;-68
2022/01/30 10:30:49;;;;;;;31.05;4.70;;;9.20;99.90;;;;;;5053176;28;20182;-68
2022/01/30 10:33:17;;;;;;;28.10;5.05;;;9.20;99.90;;;;;;5052503;28;20068;-68
2022/01/30 10:35:54;;;;;;;25.67;5.07;;;9.00;99.90;;;;;;5052974;28;20032;-68
2022/01/30 10:38:26;;;;;;;36.30;5.50;;;9.00;99.90;;;;;;5052844;28;20380;-68
2022/01/30 10:40:54;;;;;;;33.45;5.85;;;9.10;99.90;;;;;;5053123;28;20095;-68
2022/01/30 10:43:20;;;;;;;32.35;5.25;;;9.40;99.90;;;;;;5052229;28;20037;-68
2022/01/30 10:45:46;;;;;;;29.48;5.82;;;9.60;99.90;;;;;;5052738;28;20597;-68
2022/01/30 10:48:17;;;;;;;30.67;5.47;;;9.90;99.90;;;;;;5052723;28;20456;-68
2022/01/30 10:50:47;;;;;;;26.97;4.97;;;10.30;99.90;;;;;;5052795;28;20037;-68
2022/01/30 10:53:25;;;;;;;36.15;5.90;;;9.80;99.90;;;;;;5051589;28;20037;-69
2022/01/30 10:55:52;;;;;;;25.08;4.78;;;9.50;99.90;;;;;;5052952;28;20033;-69
2022/01/30 10:58:22;;;;;;;26.23;4.95;;;9.60;99.90;;;;;;5052103;28;20032;-68
2022/01/30 11:00:54;;;;;;;28.95;5.50;;;9.90;99.90;;;;;;5052110;28;20474;-68
2022/01/30 11:03:37;;;;;;;24.95;4.45;;;9.80;99.90;;;;;;5050644;28;20024;-68
2022/01/30 11:06:03;;;;;;;30.67;5.72;;;10.00;99.90;;;;;;5052209;28;20031;-68
2022/01/30 11:08:31;;;;;;;32.47;6.30;;;10.30;99.90;;;;;;5052894;28;20055;-69
2022/01/30 11:11:16;;;;;;;21.83;4.50;;;10.80;99.90;;;;;;5049776;28;20041;-68
2022/01/30 11:14:01;;;;;;;31.23;4.75;;;10.60;99.90;;;;;;5045650;28;20029;-70
2022/01/30 11:19:15;;;;;;;26.10;3.80;;;10.90;99.90;;;;;;5052384;28;20044;-69
2022/01/30 11:21:41;;;;;;;34.60;5.63;;;11.40;99.90;;;;;;5072226;28;20154;-68
2022/01/30 11:24:09;;;;;;;23.90;4.78;;;11.60;99.90;;;;;;5066796;28;20095;-68
2022/01/30 11:26:35;;;;;;;25.55;4.43;;;11.30;99.90;;;;;;5050742;28;20104;-68
2022/01/30 11:29:01;;;;;;;34.22;5.32;;;10.90;99.90;;;;;;5052507;28;20155;-69
2022/01/30 11:31:28;;;;;;;26.60;4.75;;;10.10;99.90;;;;;;5052142;28;20040;-68
2022/01/30 11:33:55;;;;;;;27.98;5.82;;;9.80;99.90;;;;;;5051706;28;20037;-68
2022/01/30 11:36:23;;;;;;;30.75;5.60;;;9.70;99.90;;;;;;5052347;28;20036;-67
2022/01/30 11:38:49;;;;;;;33.40;5.13;;;9.80;99.90;;;;;;5050988;28;20028;-69
2022/01/30 11:41:16;;;;;;;32.55;4.32;;;9.40;99.90;;;;;;5050879;28;20044;-67
2022/01/30 11:44:19;;;;;;;27.83;4.95;;;9.40;99.90;;;;;;5052301;28;20120;-68
2022/01/30 11:46:59;;;;;;;26.25;4.57;;;9.70;99.90;;;;;;5052107;28;20040;-69
2022/01/30 11:49:41;;;;;;;25.15;4.20;;;10.60;99.90;;;;;;5045040;28;20025;-69
2022/01/30 11:52:11;;;;;;;;;;;10.80;99.90;;;;;;5051053;28;20362;-68
2022/01/30 11:54:37;;;;;;;24.25;4.53;;;10.40;99.90;;;;;;5057704;28;20256;-68
2022/01/30 11:57:21;;;;;;;37.65;5.70;;;10.50;99.90;;;;;;5061719;28;20029;-70
2022/01/30 11:59:52;;;;;;;25.80;5.10;;;10.50;99.90;;;;;;5052317;28;20025;-68
2022/01/30 12:02:35;;;;;;;24.00;4.40;;;10.20;99.90;;;;;;5051898;28;20041;-68
2022/01/30 12:05:04;;;;;;;33.85;4.63;;;10.20;99.90;;;;;;5045951;28;20040;-70
2022/01/30 12:07:40;;;;;;;34.83;4.85;;;9.90;99.90;;;;;;5032094;28;20409;-70
2022/01/30 12:10:25;;;;;;;28.30;4.80;;;10.00;99.90;;;;;;5029063;28;20049;-70
2022/01/30 12:12:58;;;;;;;25.85;4.70;;;9.50;99.90;;;;;;5031921;28;20033;-70
2022/01/30 12:15:44;;;;;;;29.58;4.00;;;9.30;99.90;;;;;;5031646;28;20041;-70
2022/01/30 12:18:37;;;;;;;28.65;5.03;;;9.30;99.90;;;;;;5031500;28;20022;-70
2022/01/30 12:21:11;;;;;;;28.08;3.97;;;9.20;99.90;;;;;;5031870;28;20045;-71
2022/01/30 12:23:42;;;;;;;34.95;4.78;;;9.20;99.90;;;;;;5048274;28;20033;-72
2022/01/30 12:26:10;;;;;;;26.75;5.43;;;9.10;99.90;;;;;;5051772;28;20120;-72
2022/01/30 12:28:46;;;;;;;25.15;3.75;;;9.10;99.90;;;;;;5051776;28;20028;-72
2022/01/30 12:31:35;;;;;;;30.05;4.28;;;9.20;99.90;;;;;;5051729;28;20028;-72
2022/01/30 12:34:06;;;;;;;34.78;5.13;;;9.40;99.90;;;;;;5054357;28;20040;-72
2022/01/30 12:36:35;;;;;;;30.55;5.43;;;9.60;99.90;;;;;;5055474;28;20029;-73
2022/01/30 12:39:16;;;;;;;23.92;5.15;;;10.00;99.90;;;;;;5055731;28;20028;-72
2022/01/30 12:41:42;;;;;;;27.37;4.10;;;9.90;99.90;;;;;;5055271;28;20067;-72
2022/01/30 12:44:19;;;;;;;22.42;4.30;;;9.30;99.90;;;;;;5055033;28;20279;-72
2022/01/30 12:46:48;;;;;;;22.45;4.18;;;9.40;99.90;;;;;;5055176;28;20086;-72
2022/01/30 12:49:23;;;;;;;23.85;3.85;;;9.50;99.90;;;;;;5054117;28;20029;-72
2022/01/30 12:51:54;;;;;;;33.25;4.00;;;9.10;99.90;;;;;;5055089;28;20033;-72
2022/01/30 12:54:36;;;;;;;23.45;4.10;;;9.10;99.90;;;;;;5055190;28;20142;-72
2022/01/30 12:57:03;;;;;;;24.90;4.03;;;8.90;99.90;;;;;;5054889;28;20069;-72
2022/01/30 12:59:30;;;;;;;25.27;4.20;;;9.20;99.90;;;;;;5054824;28;20032;-71
2022/01/30 13:02:04;;;;;;;23.00;3.38;;;9.30;99.90;;;;;;5055094;28;20307;-72
2022/01/30 13:04:29;;;;;;;36.30;3.97;;;9.20;99.90;;;;;;5054983;28;20136;-72
2022/01/30 13:06:55;;;;;;;26.13;3.65;;;8.90;99.90;;;;;;5054753;28;20592;-72
2022/01/30 13:09:27;;;;;;;27.63;4.78;;;9.10;99.90;;;;;;5054963;28;20389;-72
2022/01/30 13:11:59;;;;;;;38.42;5.57;;;9.30;99.90;;;;;;5054649;28;20033;-72
2022/01/30 13:14:37;;;;;;;;;;;9.20;99.90;;;;;;5055144;28;20031;-72
2022/01/30 13:17:03;;;;;;;26.77;4.15;;;9.10;99.90;;;;;;5054754;28;19958;-71
2022/01/30 13:19:29;;;;;;;25.10;3.75;;;9.00;99.90;;;;;;5054683;28;20044;-72
2022/01/30 13:21:55;;;;;;;22.77;3.92;;;9.10;99.90;;;;;;5054461;28;20033;-72
2022/01/30 13:24:20;;;;;;;21.92;4.63;;;9.10;99.90;;;;;;5054471;28;20017;-72
2022/01/30 13:26:54;;;;;;;21.17;3.58;;;9.20;99.90;;;;;;5054262;28;20335;-71
2022/01/30 13:29:21;;;;;;;21.50;3.97;;;9.00;99.90;;;;;;5054471;28;20019;-71
2022/01/30 13:31:54;;;;;;;26.35;4.07;;;8.70;99.90;;;;;;5054382;28;20516;-72
2022/01/30 13:34:29;;;;;;;31.60;4.00;;;8.70;99.90;;;;;;5054464;28;20033;-72
2022/01/30 13:37:19;;;;;;;21.15;4.20;;;8.70;99.90;;;;;;5053509;28;20041;-71
2022/01/30 13:47:58;;;;;;;30.27;4.97;;;9.60;99.90;;;;;;5022236;28;20041;-72
2022/01/30 13:50:32;;;;;;;30.90;4.03;;;9.60;99.90;;;;;;5034256;28;20030;-71
2022/01/30 13:53:10;;;;;;;16.65;2.92;;;10.40;99.90;;;;;;5034288;28;20028;-71
2022/01/30 13:55:51;;;;;;;15.00;2.90;;;11.50;99.90;;;;;;5034230;28;20044;-72
2022/01/30 13:58:18;;;;;;;19.83;3.75;;;12.00;99.90;;;;;;5033965;28;20033;-72
2022/01/30 14:00:44;;;;;;;26.00;4.28;;;13.00;99.50;;;;;;5033940;28;20489;-72
2022/01/30 14:03:10;;;;;;;25.90;3.75;;;12.80;97.60;;;;;;5033896;28;20060;-72
2022/01/30 14:05:41;;;;;;;19.73;4.15;;;12.50;98.30;;;;;;5048599;28;20072;-72
2022/01/30 14:08:15;;;;;;;25.25;4.93;;;11.80;98.70;;;;;;5053895;28;20036;-71
2022/01/30 14:10:43;;;;;;;22.77;4.13;;;10.80;99.60;;;;;;5053828;28;20559;-72